Plover Pacific — 9V2969 — position and weather

sailwx.info

Track history (hours):
 
Tides and Currents Weather Stations Pressure Air Temp Water Temp Dewpoint Dewpoint Depression Visibility Wind Speed Wind Dir Waves Ship Positions

Plover Pacific

Last reported at 2017-Oct-22 15:26 UTC. Time now 2017-Oct-23 04:35 UTC.
Position N 36°10' E 014°49'.

Length 183 m; draft 11.6 m.

Type: Tanker. MMSI: 563037200.

Date/timePositionNaut miles runAvg speedWind from/ knotsBaromVisibWave heightAir tempDewpointWater temp
2017-Oct-22 15:26N 36°10' E 014°49'613.6
2017-Oct-22 14:59N 36°12' E 014°43'713.6
2017-Oct-22 14:30N 36°15' E 014°35'713.6
2017-Oct-22 14:00N 36°17' E 014°27'713.3
2017-Oct-22 13:30N 36°20' E 014°19'713.2
2017-Oct-22 13:00N 36°22' E 014°12'713.5
2017-Oct-22 12:30N 36°25' E 014°04'713.6
2017-Oct-22 12:00N 36°27' E 013°56'713.5
2017-Oct-22 11:31N 36°30' E 013°48'713.5
2017-Oct-22 11:00N 36°33' E 013°41'713.7
2017-Oct-22 10:30N 36°35' E 013°33'713.6
2017-Oct-22 10:00N 36°38' E 013°25'713.4
2017-Oct-22 09:30N 36°40' E 013°17'713.4
2017-Oct-22 09:00N 36°43' E 013°09'913.5
2017-Oct-22 08:23N 36°46' E 012°60'713.6
2017-Oct-22 07:51N 36°48' E 012°51'513.7
2017-Oct-22 07:31N 36°50' E 012°46'713.6
2017-Oct-22 06:58N 36°53' E 012°37'  
2017-Oct-19 15:56N 36°01' W 005°09'716.7
2017-Oct-19 15:30N 35°60' W 005°18'816.2
2017-Oct-19 15:00N 35°57' W 005°27'26411.1
2017-Oct-18 15:16N 38°21' W 010°05'612.8
2017-Oct-18 14:49N 38°26' W 010°07'2712.7
2017-Oct-18 12:42N 38°53' W 010°12'312.6
2017-Oct-18 12:29N 38°56' W 010°12'612.2
2017-Oct-18 12:00N 39°02' W 010°12'612.4
2017-Oct-18 11:31N 39°08' W 010°12'813.0
2017-Oct-18 10:55N 39°15' W 010°12'  
2017-Oct-16 02:14N 47°58' W 006°32'1311.6
2017-Oct-16 01:08N 48°10' W 006°23'111.5
2017-Oct-16 01:00N 48°11' W 006°22'611.5
2017-Oct-16 00:30N 48°16' W 006°18'611.3
2017-Oct-15 23:57N 48°21' W 006°13'511.4
2017-Oct-15 23:29N 48°26' W 006°09'611.6
2017-Oct-15 22:58N 48°32' W 006°05'1111.9
2017-Oct-15 22:04N 48°41' W 005°57'112.0
2017-Oct-15 21:59N 48°42' W 005°56'1812.4
2017-Oct-15 20:32N 48°57' W 005°41'013.2
2017-Oct-15 20:30N 48°57' W 005°40'713.4
2017-Oct-15 20:00N 49°00' W 005°32'1611.9
2017-Oct-15 18:39N 49°09' W 005°10'8 9.2
2017-Oct-15 17:45N 49°13' W 004°59'413.0
2017-Oct-15 17:28N 49°14' W 004°54'612.6
2017-Oct-15 16:57N 49°18' W 004°46'812.5
2017-Oct-15 16:18N 49°22' W 004°35'412.4
2017-Oct-15 15:56N 49°24' W 004°29'512.2
2017-Oct-15 15:30N 49°27' W 004°22'712.0
2017-Oct-15 14:53N 49°31' W 004°12'1111.9
2017-Oct-15 13:55N 49°36' W 003°57'512.0
2017-Oct-15 13:28N 49°39' W 003°50'612.1
2017-Oct-15 13:00N 49°42' W 003°42'612.3
2017-Oct-15 12:30N 49°45' W 003°34'612.7
2017-Oct-15 12:00N 49°48' W 003°26'713.1
2017-Oct-15 11:30N 49°52' W 003°17'713.6
2017-Oct-15 11:00N 49°56' W 003°09'714.3
2017-Oct-15 10:31N 49°59' W 002°59'714.6
2017-Oct-15 10:01N 50°01' W 002°48'714.8
2017-Oct-15 09:30N 50°03' W 002°37'714.9
2017-Oct-15 09:01N 50°05' W 002°26'714.7
2017-Oct-15 08:30N 50°07' W 002°15'714.2
2017-Oct-15 08:01N 50°09' W 002°04'713.7
2017-Oct-15 07:29N 50°11' W 001°53'2012.3
2017-Oct-15 05:52N 50°16' W 001°23'511.1
2017-Oct-15 05:25N 50°17' W 001°15'511.0
2017-Oct-15 05:00N 50°18' W 001°08'611.0
2017-Oct-15 04:29N 50°20' W 000°60'511.2
2017-Oct-15 04:00N 50°22' W 000°52'611.6
2017-Oct-15 03:30N 50°23' W 000°43'611.9
2017-Oct-15 03:00N 50°24' W 000°34'612.4
2017-Oct-15 02:30N 50°26' W 000°25'613.0
2017-Oct-15 02:00N 50°28' W 000°15'713.5
2017-Oct-15 01:30N 50°30' W 000°05'713.9
2017-Oct-15 01:00N 50°31' E 000°06'714.2
2017-Oct-15 00:30N 50°33' E 000°17'714.5
2017-Oct-15 00:00N 50°35' E 000°28'714.6
2017-Oct-14 23:31N 50°38' E 000°38'714.4
2017-Oct-14 23:00N 50°42' E 000°48'714.2
2017-Oct-14 22:31N 50°47' E 000°56'713.8
2017-Oct-14 22:01N 50°51' E 001°04'713.3
2017-Oct-14 21:30N 50°56' E 001°13'612.8
2017-Oct-14 21:01N 50°60' E 001°20'612.0
2017-Oct-14 20:31N 51°03' E 001°27'612.2
2017-Oct-14 20:01N 51°07' E 001°35'612.0
2017-Oct-14 19:30N 51°11' E 001°42'612.2
2017-Oct-14 19:01N 51°16' E 001°48'612.7
2017-Oct-14 18:31N 51°21' E 001°53'713.3
2017-Oct-14 18:01N 51°27' E 001°58'713.7
2017-Oct-14 17:30N 51°32' E 002°06'713.9
2017-Oct-14 17:00N 51°37' E 002°14'814.2
2017-Oct-14 16:27N 51°43' E 002°22'1314.4
2017-Oct-14 15:33N 51°53' E 002°36'114.3
2017-Oct-14 15:29N 51°54' E 002°37'1613.8
2017-Oct-14 14:19N 52°06' E 002°54'1912.7
2017-Oct-14 12:50N 52°20' E 003°13'411.9
2017-Oct-14 12:30N 52°24' E 003°17'611.6
2017-Oct-14 12:00N 52°27' E 003°25'611.8
2017-Oct-14 11:31N 52°29' E 003°34'611.5
2017-Oct-14 10:59N 52°31' E 003°44'611.3
2017-Oct-14 10:30N 52°31' E 003°53'611.3
2017-Oct-14 10:00N 52°31' E 004°02'510.5
2017-Oct-14 09:31N 52°31' E 004°10'5 9.1
2017-Oct-14 09:01N 52°30' E 004°18'4 7.6
2017-Oct-14 08:31N 52°29' E 004°24'3 6.9
2017-Oct-14 08:00N 52°28' E 004°29'4 7.3
2017-Oct-14 07:31N 52°28' E 004°35'1 1.8
2017-Oct-14 07:00N 52°28' E 004°37'1 2.5
2017-Oct-14 06:31N 52°28' E 004°39'3 6.9
2017-Oct-14 06:01N 52°26' E 004°43'3 5.1
2017-Oct-14 05:30N 52°24' E 004°47'0 0.6
2017-Oct-14 04:54N 52°24' E 004°47'0 0.0
2017-Oct-14 04:30N 52°24' E 004°47'0 0.0
2017-Oct-14 04:00N 52°24' E 004°47'0 0.0
2017-Oct-14 03:30N 52°24' E 004°47'0 0.0
2017-Oct-14 02:57N 52°24' E 004°47'0 0.0
2017-Oct-14 02:30N 52°24' E 004°47'0 0.0
2017-Oct-14 01:57N 52°24' E 004°47'0 0.0
2017-Oct-14 01:30N 52°24' E 004°47'0 0.0
2017-Oct-14 01:00N 52°24' E 004°47'0 0.0
2017-Oct-14 00:30N 52°24' E 004°47'0 0.0
2017-Oct-14 00:00N 52°24' E 004°47'0 0.0
2017-Oct-13 23:30N 52°24' E 004°47'0 0.0
2017-Oct-13 23:00N 52°24' E 004°47'0 0.0
2017-Oct-13 22:30N 52°24' E 004°47'0 0.0
2017-Oct-13 21:57N 52°24' E 004°47'0 0.0
2017-Oct-13 21:30N 52°24' E 004°47'0 0.0
2017-Oct-13 21:00N 52°24' E 004°47'0 0.0
2017-Oct-13 20:30N 52°24' E 004°47'0 0.0
2017-Oct-13 20:00N 52°24' E 004°47'0 0.0
2017-Oct-13 19:30N 52°24' E 004°47'0 0.0
2017-Oct-13 19:00N 52°24' E 004°47'0 0.0
2017-Oct-13 18:30N 52°24' E 004°47'0 0.0
2017-Oct-13 18:00N 52°24' E 004°47'0 0.0
2017-Oct-13 16:57N 52°24' E 004°47'0 0.0
2017-Oct-13 16:30N 52°24' E 004°47'0 0.0
2017-Oct-13 16:00N 52°24' E 004°47'0 0.0
2017-Oct-13 15:30N 52°24' E 004°47'0 0.0
2017-Oct-13 15:00N 52°24' E 004°47'0 0.0
2017-Oct-13 14:30N 52°24' E 004°47'0 0.0
2017-Oct-13 14:00N 52°24' E 004°47'0 0.0
2017-Oct-13 13:30N 52°24' E 004°47'0 0.0
2017-Oct-13 13:00N 52°24' E 004°47'0 0.0
2017-Oct-13 12:30N 52°24' E 004°47'0 0.0
2017-Oct-13 12:00N 52°24' E 004°47'0 0.0
2017-Oct-13 11:30N 52°24' E 004°47'0 0.0
2017-Oct-13 11:00N 52°24' E 004°47'0 0.0
2017-Oct-13 10:30N 52°24' E 004°47'0 0.0
2017-Oct-13 10:00N 52°24' E 004°47'0 0.0
2017-Oct-13 09:30N 52°24' E 004°47'0 0.0
2017-Oct-13 09:00N 52°24' E 004°47'0 0.0
2017-Oct-13 08:00N 52°24' E 004°47'0 0.0
2017-Oct-13 07:30N 52°24' E 004°47'0 0.0
2017-Oct-13 07:00N 52°24' E 004°47'0 0.0
2017-Oct-13 06:30N 52°24' E 004°47'0 0.0
2017-Oct-13 06:00N 52°24' E 004°47'0 0.0
2017-Oct-13 05:30N 52°24' E 004°47'0 0.0
2017-Oct-13 05:00N 52°24' E 004°47'0 0.0
2017-Oct-13 04:30N 52°24' E 004°47'0 0.0
2017-Oct-13 04:00N 52°24' E 004°47'0 0.0
2017-Oct-13 03:30N 52°24' E 004°47'0 0.0
2017-Oct-13 03:00N 52°24' E 004°47'0 0.0
2017-Oct-13 02:30N 52°24' E 004°47'0 0.0
2017-Oct-13 01:57N 52°24' E 004°47'0 0.0
2017-Oct-13 01:30N 52°24' E 004°47'0 0.0
2017-Oct-13 01:00N 52°24' E 004°47'0 0.0
2017-Oct-13 00:30N 52°24' E 004°47'0 0.0
2017-Oct-13 00:00N 52°24' E 004°47'0 0.0
2017-Oct-12 23:30N 52°24' E 004°47'0 0.0
2017-Oct-12 23:00N 52°24' E 004°47'0 0.0
2017-Oct-12 22:30N 52°24' E 004°47'0 0.0
2017-Oct-12 22:00N 52°24' E 004°47'0 0.0
2017-Oct-12 21:30N 52°24' E 004°47'0 0.0
2017-Oct-12 21:00N 52°24' E 004°47'0 0.0
2017-Oct-12 20:30N 52°24' E 004°47'0 0.0
2017-Oct-12 20:00N 52°24' E 004°47'0 0.0
2017-Oct-12 19:30N 52°24' E 004°47'0 0.0
2017-Oct-12 19:00N 52°24' E 004°47'0 0.0
2017-Oct-12 18:30N 52°24' E 004°47'0 0.0
2017-Oct-12 18:00N 52°24' E 004°47'0 0.0
2017-Oct-12 17:30N 52°24' E 004°47'0 0.0
2017-Oct-12 17:00N 52°24' E 004°47'0 0.0
2017-Oct-12 16:30N 52°24' E 004°47'0 0.0
2017-Oct-12 16:00N 52°24' E 004°47'0 0.0
2017-Oct-12 15:30N 52°24' E 004°47'  
Track history (hours):
 
Tides and Currents Weather Stations Pressure Air Temp Water Temp Dewpoint Dewpoint Depression Visibility Wind Speed Wind Dir Waves Ship Positions

Plover Pacific

Last reported at 2017-Oct-22 15:26 UTC. Time now 2017-Oct-23 04:35 UTC.
Position N 36°10' E 014°49'.

Length 183 m; draft 11.6 m.

Type: Tanker. MMSI: 563037200.

Date/timePositionNaut miles runAvg speedWind from/ knotsBaromVisibWave heightAir tempDewpointWater temp
2017-Oct-22 15:26N 36°10' E 014°49'613.6
2017-Oct-22 14:59N 36°12' E 014°43'713.6
2017-Oct-22 14:30N 36°15' E 014°35'713.6
2017-Oct-22 14:00N 36°17' E 014°27'713.3
2017-Oct-22 13:30N 36°20' E 014°19'713.2
2017-Oct-22 13:00N 36°22' E 014°12'713.5
2017-Oct-22 12:30N 36°25' E 014°04'713.6
2017-Oct-22 12:00N 36°27' E 013°56'713.5
2017-Oct-22 11:31N 36°30' E 013°48'713.5
2017-Oct-22 11:00N 36°33' E 013°41'713.7
2017-Oct-22 10:30N 36°35' E 013°33'713.6
2017-Oct-22 10:00N 36°38' E 013°25'713.4
2017-Oct-22 09:30N 36°40' E 013°17'713.4
2017-Oct-22 09:00N 36°43' E 013°09'913.5
2017-Oct-22 08:23N 36°46' E 012°60'713.6
2017-Oct-22 07:51N 36°48' E 012°51'513.7
2017-Oct-22 07:31N 36°50' E 012°46'713.6
2017-Oct-22 06:58N 36°53' E 012°37'  
2017-Oct-19 15:56N 36°01' W 005°09'716.7
2017-Oct-19 15:30N 35°60' W 005°18'816.2
2017-Oct-19 15:00N 35°57' W 005°27'26411.1
2017-Oct-18 15:16N 38°21' W 010°05'612.8
2017-Oct-18 14:49N 38°26' W 010°07'2712.7
2017-Oct-18 12:42N 38°53' W 010°12'312.6
2017-Oct-18 12:29N 38°56' W 010°12'612.2
2017-Oct-18 12:00N 39°02' W 010°12'612.4
2017-Oct-18 11:31N 39°08' W 010°12'813.0
2017-Oct-18 10:55N 39°15' W 010°12'  
2017-Oct-16 02:14N 47°58' W 006°32'1311.6
2017-Oct-16 01:08N 48°10' W 006°23'111.5
2017-Oct-16 01:00N 48°11' W 006°22'611.5
2017-Oct-16 00:30N 48°16' W 006°18'611.3
2017-Oct-15 23:57N 48°21' W 006°13'511.4
2017-Oct-15 23:29N 48°26' W 006°09'611.6
2017-Oct-15 22:58N 48°32' W 006°05'1111.9
2017-Oct-15 22:04N 48°41' W 005°57'112.0
2017-Oct-15 21:59N 48°42' W 005°56'1812.4
2017-Oct-15 20:32N 48°57' W 005°41'013.2
2017-Oct-15 20:30N 48°57' W 005°40'713.4
2017-Oct-15 20:00N 49°00' W 005°32'1611.9
2017-Oct-15 18:39N 49°09' W 005°10'8 9.2
2017-Oct-15 17:45N 49°13' W 004°59'413.0
2017-Oct-15 17:28N 49°14' W 004°54'612.6
2017-Oct-15 16:57N 49°18' W 004°46'812.5
2017-Oct-15 16:18N 49°22' W 004°35'412.4
2017-Oct-15 15:56N 49°24' W 004°29'512.2
2017-Oct-15 15:30N 49°27' W 004°22'712.0
2017-Oct-15 14:53N 49°31' W 004°12'1111.9
2017-Oct-15 13:55N 49°36' W 003°57'512.0
2017-Oct-15 13:28N 49°39' W 003°50'612.1
2017-Oct-15 13:00N 49°42' W 003°42'612.3
2017-Oct-15 12:30N 49°45' W 003°34'612.7
2017-Oct-15 12:00N 49°48' W 003°26'713.1
2017-Oct-15 11:30N 49°52' W 003°17'713.6
2017-Oct-15 11:00N 49°56' W 003°09'714.3
2017-Oct-15 10:31N 49°59' W 002°59'714.6
2017-Oct-15 10:01N 50°01' W 002°48'714.8
2017-Oct-15 09:30N 50°03' W 002°37'714.9
2017-Oct-15 09:01N 50°05' W 002°26'714.7
2017-Oct-15 08:30N 50°07' W 002°15'714.2
2017-Oct-15 08:01N 50°09' W 002°04'713.7
2017-Oct-15 07:29N 50°11' W 001°53'2012.3
2017-Oct-15 05:52N 50°16' W 001°23'511.1
2017-Oct-15 05:25N 50°17' W 001°15'511.0
2017-Oct-15 05:00N 50°18' W 001°08'611.0
2017-Oct-15 04:29N 50°20' W 000°60'511.2
2017-Oct-15 04:00N 50°22' W 000°52'611.6
2017-Oct-15 03:30N 50°23' W 000°43'611.9
2017-Oct-15 03:00N 50°24' W 000°34'612.4
2017-Oct-15 02:30N 50°26' W 000°25'613.0
2017-Oct-15 02:00N 50°28' W 000°15'713.5
2017-Oct-15 01:30N 50°30' W 000°05'713.9
2017-Oct-15 01:00N 50°31' E 000°06'714.2
2017-Oct-15 00:30N 50°33' E 000°17'714.5
2017-Oct-15 00:00N 50°35' E 000°28'714.6
2017-Oct-14 23:31N 50°38' E 000°38'714.4
2017-Oct-14 23:00N 50°42' E 000°48'714.2
2017-Oct-14 22:31N 50°47' E 000°56'713.8
2017-Oct-14 22:01N 50°51' E 001°04'713.3
2017-Oct-14 21:30N 50°56' E 001°13'612.8
2017-Oct-14 21:01N 50°60' E 001°20'612.0
2017-Oct-14 20:31N 51°03' E 001°27'612.2
2017-Oct-14 20:01N 51°07' E 001°35'612.0
2017-Oct-14 19:30N 51°11' E 001°42'612.2
2017-Oct-14 19:01N 51°16' E 001°48'612.7
2017-Oct-14 18:31N 51°21' E 001°53'713.3
2017-Oct-14 18:01N 51°27' E 001°58'713.7
2017-Oct-14 17:30N 51°32' E 002°06'713.9
2017-Oct-14 17:00N 51°37' E 002°14'814.2
2017-Oct-14 16:27N 51°43' E 002°22'1314.4
2017-Oct-14 15:33N 51°53' E 002°36'114.3
2017-Oct-14 15:29N 51°54' E 002°37'1613.8
2017-Oct-14 14:19N 52°06' E 002°54'1912.7
2017-Oct-14 12:50N 52°20' E 003°13'411.9
2017-Oct-14 12:30N 52°24' E 003°17'611.6
2017-Oct-14 12:00N 52°27' E 003°25'611.8
2017-Oct-14 11:31N 52°29' E 003°34'611.5
2017-Oct-14 10:59N 52°31' E 003°44'611.3
2017-Oct-14 10:30N 52°31' E 003°53'611.3
2017-Oct-14 10:00N 52°31' E 004°02'510.5
2017-Oct-14 09:31N 52°31' E 004°10'5 9.1
2017-Oct-14 09:01N 52°30' E 004°18'4 7.6
2017-Oct-14 08:31N 52°29' E 004°24'3 6.9
2017-Oct-14 08:00N 52°28' E 004°29'4 7.3
2017-Oct-14 07:31N 52°28' E 004°35'1 1.8
2017-Oct-14 07:00N 52°28' E 004°37'1 2.5
2017-Oct-14 06:31N 52°28' E 004°39'3 6.9
2017-Oct-14 06:01N 52°26' E 004°43'3 5.1
2017-Oct-14 05:30N 52°24' E 004°47'0 0.6
2017-Oct-14 04:54N 52°24' E 004°47'0 0.0
2017-Oct-14 04:30N 52°24' E 004°47'0 0.0
2017-Oct-14 04:00N 52°24' E 004°47'0 0.0
2017-Oct-14 03:30N 52°24' E 004°47'0 0.0
2017-Oct-14 02:57N 52°24' E 004°47'0 0.0
2017-Oct-14 02:30N 52°24' E 004°47'0 0.0
2017-Oct-14 01:57N 52°24' E 004°47'0 0.0
2017-Oct-14 01:30N 52°24' E 004°47'0 0.0
2017-Oct-14 01:00N 52°24' E 004°47'0 0.0
2017-Oct-14 00:30N 52°24' E 004°47'0 0.0
2017-Oct-14 00:00N 52°24' E 004°47'0 0.0
2017-Oct-13 23:30N 52°24' E 004°47'0 0.0
2017-Oct-13 23:00N 52°24' E 004°47'0 0.0
2017-Oct-13 22:30N 52°24' E 004°47'0 0.0
2017-Oct-13 21:57N 52°24' E 004°47'0 0.0
2017-Oct-13 21:30N 52°24' E 004°47'0 0.0
2017-Oct-13 21:00N 52°24' E 004°47'0 0.0
2017-Oct-13 20:30N 52°24' E 004°47'0 0.0
2017-Oct-13 20:00N 52°24' E 004°47'0 0.0
2017-Oct-13 19:30N 52°24' E 004°47'0 0.0
2017-Oct-13 19:00N 52°24' E 004°47'0 0.0
2017-Oct-13 18:30N 52°24' E 004°47'0 0.0
2017-Oct-13 18:00N 52°24' E 004°47'0 0.0
2017-Oct-13 16:57N 52°24' E 004°47'0 0.0
2017-Oct-13 16:30N 52°24' E 004°47'0 0.0
2017-Oct-13 16:00N 52°24' E 004°47'0 0.0
2017-Oct-13 15:30N 52°24' E 004°47'0 0.0
2017-Oct-13 15:00N 52°24' E 004°47'0 0.0
2017-Oct-13 14:30N 52°24' E 004°47'0 0.0
2017-Oct-13 14:00N 52°24' E 004°47'0 0.0
2017-Oct-13 13:30N 52°24' E 004°47'0 0.0
2017-Oct-13 13:00N 52°24' E 004°47'0 0.0
2017-Oct-13 12:30N 52°24' E 004°47'0 0.0
2017-Oct-13 12:00N 52°24' E 004°47'0 0.0
2017-Oct-13 11:30N 52°24' E 004°47'0 0.0
2017-Oct-13 11:00N 52°24' E 004°47'0 0.0
2017-Oct-13 10:30N 52°24' E 004°47'0 0.0
2017-Oct-13 10:00N 52°24' E 004°47'0 0.0
2017-Oct-13 09:30N 52°24' E 004°47'0 0.0
2017-Oct-13 09:00N 52°24' E 004°47'0 0.0
2017-Oct-13 08:00N 52°24' E 004°47'0 0.0
2017-Oct-13 07:30N 52°24' E 004°47'0 0.0
2017-Oct-13 07:00N 52°24' E 004°47'0 0.0
2017-Oct-13 06:30N 52°24' E 004°47'0 0.0
2017-Oct-13 06:00N 52°24' E 004°47'0 0.0
2017-Oct-13 05:30N 52°24' E 004°47'0 0.0
2017-Oct-13 05:00N 52°24' E 004°47'0 0.0
2017-Oct-13 04:30N 52°24' E 004°47'0 0.0
2017-Oct-13 04:00N 52°24' E 004°47'0 0.0
2017-Oct-13 03:30N 52°24' E 004°47'0 0.0
2017-Oct-13 03:00N 52°24' E 004°47'0 0.0
2017-Oct-13 02:30N 52°24' E 004°47'0 0.0
2017-Oct-13 01:57N 52°24' E 004°47'0 0.0
2017-Oct-13 01:30N 52°24' E 004°47'0 0.0
2017-Oct-13 01:00N 52°24' E 004°47'0 0.0
2017-Oct-13 00:30N 52°24' E 004°47'0 0.0
2017-Oct-13 00:00N 52°24' E 004°47'0 0.0
2017-Oct-12 23:30N 52°24' E 004°47'0 0.0
2017-Oct-12 23:00N 52°24' E 004°47'0 0.0
2017-Oct-12 22:30N 52°24' E 004°47'0 0.0
2017-Oct-12 22:00N 52°24' E 004°47'0 0.0
2017-Oct-12 21:30N 52°24' E 004°47'0 0.0
2017-Oct-12 21:00N 52°24' E 004°47'0 0.0
2017-Oct-12 20:30N 52°24' E 004°47'0 0.0
2017-Oct-12 20:00N 52°24' E 004°47'0 0.0
2017-Oct-12 19:30N 52°24' E 004°47'0 0.0
2017-Oct-12 19:00N 52°24' E 004°47'0 0.0
2017-Oct-12 18:30N 52°24' E 004°47'0 0.0
2017-Oct-12 18:00N 52°24' E 004°47'0 0.0
2017-Oct-12 17:30N 52°24' E 004°47'0 0.0
2017-Oct-12 17:00N 52°24' E 004°47'0 0.0
2017-Oct-12 16:30N 52°24' E 004°47'0 0.0
2017-Oct-12 16:00N 52°24' E 004°47'0 0.0
2017-Oct-12 15:30N 52°24' E 004°47'  

Dump ship's entire track history